Los Molinos, California
Current Conditions -  °F | °C
As of 9:54 AM on Sunday 21 Dec 2014 (Local Time) from KRBL Reporting Station
Haze Haze  
Wind Chill: 55°   Ceiling: 400
Heat Index: 55°   Visibility: 4mi
Dew Point: 53°   Wind: 10mph
Humidity: 93%   Direction: 160°SSE
Pressure: 30.29"   Gusts: NA
Location:  40.02°N, 122.1°W
Report Text: KRBL 211754Z AUTO 16009KT 4SM BR OVC004 13/12 A3029 RMK AO2 SLP255 60002 T01280117 10128 20117 53015
Loading
Personal Weather Stations






























Interactive Weather Map New forecast layout! Learn more

10-Day Weather Forecast

Advertisements
Track Severe Weather on mobile